Cleveland, Ohio
Traffic Map
Current Weather Conditions
Cleveland, Ohio
Overcast
Overcast
71°
Feels Like: 71°
Wind Chill: 71° Ceiling: 1800
Heat Index: 71° Visibility: 10mi
Dew Point: 63° Wind: 13mph
Humidity: 75% Direction: 350° (N)
Pressure: 29.86in Gusts: 0mph
Raw Report DataKBKL 241253Z 35011KT 10SM BKN018 BKN027 OVC034 22/17 A2986 RMK AO2 SLP108 T02170172
Traffic Incident Summary
Active as of:
Severity:
Category:
InformationThere was an issue retrieving the traffic information for this location. Please try a different location or try again shortly.
Advertisements
Track Severe Weather on mobile